Deer, Arkansas
Current Conditions -  °F | °C
As of 9:53 AM on Sunday 25 Jan 2015 (Local Time) from KHRO Reporting Station
Overcast Overcast  
Wind Chill: 43°   Ceiling: 3700
Heat Index: 49°   Visibility: 10mi
Dew Point: 38°   Wind: 16mph
Humidity: 66%   Direction: 290°WNW
Pressure: 29.7"   Gusts: 31mph
Location:  35.83°N, 93.21°W
Report Text: KHRO 251553Z AUTO 29014G27KT 10SM BKN037 OVC046 09/03 A2970 RMK AO2 PK WND 29027/1550 SLP055 T00940033
Loading
Personal Weather Stations






























Interactive Weather Map New forecast layout! Learn more

10-Day Weather Forecast

Advertisements
Track Severe Weather on mobile